Share

Kerrick, TX (79051)

Dalhart Municipal (KDHT) Elev 3990 ft | 36.03 °N, 102.55 °W | Change Station

Current weather conditions updated 29 minutes ago

Clear
Clear
60 °F
Feels Like 60 °F
N
21
Wind Variable Wind from NE
Gusts 30 mph
Sunrise 7:13 AM
Sunset 8:24 PM
Moon Waning Gibbous

Tomorrow is forecast to be Much Cooler than today. Showers ending by midday.

Pressure 29.82 in
Visibility 10.0 miles
Clouds Clear
Dew Point 26 °F
Humidity 27%
Rainfall 0.00 in
Snow Depth Not available.
UV 0 out of 16
Pollen 9.10 out of 12
Air Quality Not available.
Flu Activity Local Activity
METAR KDHT 170053Z AUTO 05018G26KT 10SM CLR 16/M03 A2989 RMK AO2 PK WND 05030/0007 SLP096 T01561033

More Conditions Fewer Conditions

Pressure 29.82 in
Visibility 10.0 miles
Clouds Clear
Dew Point 26 °F
Humidity 27%
Rainfall 0.00 in
Snow Depth Not available.
UV 0 out of 16
Pollen 9.10 out of 12
Air Quality Not available.
Flu Activity Local Activity
METAR KDHT 170053Z AUTO 05018G26KT 10SM CLR 16/M03 A2989 RMK AO2 PK WND 05030/0007 SLP096 T01561033

More Conditions Fewer Conditions

10-Day Forecast

Almanac

Astronomy

Apr. 16, 2014 Rise Set
Actual Time 7:13 AM CDT 8:24 PM CDT
Civil Twilight 6:47 AM CDT 8:50 PM CDT
Nautical Twilight 6:15 AM CDT 9:22 PM CDT
Astronomical Twilight 5:42 AM CDT 9:55 PM CDT
Moon 10:07 PM CDT (4/16) 8:04 AM CDT (4/16)
Length of Visible Light 14h 03m
Length of Day
13h 10m
Tomorrow will be 2m 12s longer.
Waning Gibbous, 97% of the Moon is Illuminated
Today
Waning Gibbous
Apr 22
Last Quarter
Apr 29
New
May 6
First Quarter
May 14
Full

Today's Extremes

State Highs State Lows

Community

  • symphony in blue....
    symphony in blue....
  • Dawn Surprise
    Dawn Surprise
  • Yucca delight
    Yucca delight
  • Sunset inside of the Ocean
    Sunset inside of the Ocean
  • Lunar eclipse 15 April 2014
    Lunar eclipse 15 April 2014

WunderPhotos

Upload Photos

1,701,783 photos uploaded!

WunderBlogs® & News

Nearby

Snow Depth

Station Depth Elevation
No new snow has been reported.

Coastal Water Temperatures

Place Temperature
No Stations Reporting

Earthquake Activity

City Distance Mag. Time & Date
No recent earthquake activity has been reported nearby.
Minimum magnitude displayed is 2.5.

Nearby Weather Stations

Station Location Temp. Dew Point Humidity Wind Precip. Elev Updated Type
MesoWest CONLEN , Stratford, TX 62 °F - - North  at  - 0.00 in / hr 3748 ft 7:15 PM CDT MADIS
MesoWest CHBRLN , Dalhart, TX 58 °F - - North  at  - 0.00 in / hr 3964 ft 6:55 PM CDT MADIS

Show More Stations Show Fewer Stations

What do you think?

We're not finished. Please let us know what you like, what you don't like, and what you are still missing.